sensor_id;sensor_type;location;lat;lon;timestamp;P1;durP1;ratioP1;P2;durP2;ratioP2
40198;SDS011;25906;43.536;26.068;2024-01-07T19:39:58;26.35;;;10.48;;
40198;SDS011;25906;43.536;26.068;2024-01-07T19:42:43;37.17;;;10.20;;
40198;SDS011;25906;43.536;26.068;2024-01-07T19:45:29;36.83;;;10.43;;
40198;SDS011;25906;43.536;26.068;2024-01-07T19:48:15;43.13;;;11.30;;
40198;SDS011;25906;43.536;26.068;2024-01-07T19:51:03;37.60;;;11.40;;
40198;SDS011;25906;43.536;26.068;2024-01-07T19:53:49;116.30;;;11.25;;
40198;SDS011;25906;43.536;26.068;2024-01-07T19:56:37;39.00;;;9.98;;
40198;SDS011;25906;43.536;26.068;2024-01-07T19:59:42;25.25;;;9.10;;
40198;SDS011;25906;43.536;26.068;2024-01-07T20:02:28;45.72;;;10.27;;
40198;SDS011;25906;43.536;26.068;2024-01-07T20:05:19;54.33;;;9.88;;
40198;SDS011;25906;43.536;26.068;2024-01-07T20:08:04;38.65;;;10.18;;
40198;SDS011;25906;43.536;26.068;2024-01-07T20:13:37;30.15;;;9.52;;
40198;SDS011;25906;43.536;26.068;2024-01-07T20:16:26;41.88;;;8.45;;
40198;SDS011;25906;43.536;26.068;2024-01-07T20:19:11;163.80;;;14.52;;
40198;SDS011;25906;43.536;26.068;2024-01-07T20:21:58;26.98;;;9.27;;
40198;SDS011;25906;43.536;26.068;2024-01-07T20:24:43;25.58;;;9.50;;
40198;SDS011;25906;43.536;26.068;2024-01-07T20:27:29;19.33;;;9.02;;
40198;SDS011;25906;43.536;26.068;2024-01-07T20:30:15;31.83;;;7.90;;
40198;SDS011;25906;43.536;26.068;2024-01-07T20:33:03;28.42;;;8.15;;
40198;SDS011;25906;43.536;26.068;2024-01-07T20:35:55;61.20;;;8.57;;
40198;SDS011;25906;43.536;26.068;2024-01-07T20:38:42;47.25;;;9.40;;
40198;SDS011;25906;43.536;26.068;2024-01-07T20:41:31;40.88;;;7.60;;
40198;SDS011;25906;43.536;26.068;2024-01-07T20:44:16;41.05;;;8.82;;
40198;SDS011;25906;43.536;26.068;2024-01-07T20:47:02;40.45;;;7.75;;
40198;SDS011;25906;43.536;26.068;2024-01-07T20:49:48;42.42;;;7.40;;
40198;SDS011;25906;43.536;26.068;2024-01-07T20:52:33;46.25;;;8.05;;
40198;SDS011;25906;43.536;26.068;2024-01-07T20:55:18;28.02;;;7.85;;
40198;SDS011;25906;43.536;26.068;2024-01-07T20:58:04;84.22;;;9.23;;
40198;SDS011;25906;43.536;26.068;2024-01-07T21:00:56;23.77;;;7.78;;
40198;SDS011;25906;43.536;26.068;2024-01-07T21:03:43;53.15;;;7.97;;
40198;SDS011;25906;43.536;26.068;2024-01-07T21:06:29;33.47;;;7.65;;
40198;SDS011;25906;43.536;26.068;2024-01-07T21:09:15;26.02;;;6.63;;
40198;SDS011;25906;43.536;26.068;2024-01-07T21:12:00;53.97;;;7.45;;
40198;SDS011;25906;43.536;26.068;2024-01-07T21:14:52;31.95;;;7.15;;
40198;SDS011;25906;43.536;26.068;2024-01-07T21:17:37;27.23;;;7.28;;
40198;SDS011;25906;43.536;26.068;2024-01-07T21:20:23;33.03;;;6.43;;
40198;SDS011;25906;43.536;26.068;2024-01-07T21:23:09;63.08;;;7.65;;
40198;SDS011;25906;43.536;26.068;2024-01-07T21:25:54;30.48;;;6.35;;
40198;SDS011;25906;43.536;26.068;2024-01-07T21:28:40;73.70;;;7.55;;
40198;SDS011;25906;43.536;26.068;2024-01-07T21:31:28;71.78;;;8.52;;
40198;SDS011;25906;43.536;26.068;2024-01-07T21:34:13;72.57;;;8.93;;
40198;SDS011;25906;43.536;26.068;2024-01-07T21:36:59;44.38;;;6.95;;
40198;SDS011;25906;43.536;26.068;2024-01-07T21:39:47;47.28;;;6.35;;
40198;SDS011;25906;43.536;26.068;2024-01-07T21:42:33;39.83;;;8.20;;
40198;SDS011;25906;43.536;26.068;2024-01-07T21:45:22;55.97;;;7.60;;
40198;SDS011;25906;43.536;26.068;2024-01-07T21:48:07;28.63;;;6.78;;
40198;SDS011;25906;43.536;26.068;2024-01-07T21:50:53;112.50;;;8.85;;
40198;SDS011;25906;43.536;26.068;2024-01-07T21:53:38;69.15;;;7.45;;
40198;SDS011;25906;43.536;26.068;2024-01-07T21:56:24;31.98;;;6.60;;
40198;SDS011;25906;43.536;26.068;2024-01-07T21:59:09;47.78;;;7.10;;
40198;SDS011;25906;43.536;26.068;2024-01-07T22:01:57;75.78;;;9.32;;
40198;SDS011;25906;43.536;26.068;2024-01-07T22:07:28;27.55;;;5.93;;
40198;SDS011;25906;43.536;26.068;2024-01-07T22:10:14;55.90;;;7.60;;
40198;SDS011;25906;43.536;26.068;2024-01-07T22:13:02;101.10;;;9.27;;
40198;SDS011;25906;43.536;26.068;2024-01-07T22:15:51;32.13;;;6.65;;
40198;SDS011;25906;43.536;26.068;2024-01-07T22:18:36;38.58;;;6.57;;
40198;SDS011;25906;43.536;26.068;2024-01-07T22:21:22;20.65;;;5.93;;
40198;SDS011;25906;43.536;26.068;2024-01-07T22:24:08;26.92;;;5.88;;
40198;SDS011;25906;43.536;26.068;2024-01-07T22:26:54;66.32;;;8.15;;
40198;SDS011;25906;43.536;26.068;2024-01-07T22:29:48;25.02;;;5.72;;
40198;SDS011;25906;43.536;26.068;2024-01-07T22:32:34;69.43;;;7.55;;
40198;SDS011;25906;43.536;26.068;2024-01-07T22:35:19;28.08;;;5.18;;
40198;SDS011;25906;43.536;26.068;2024-01-07T22:38:05;101.85;;;10.00;;
40198;SDS011;25906;43.536;26.068;2024-01-07T22:40:51;22.90;;;5.65;;
40198;SDS011;25906;43.536;26.068;2024-01-07T22:43:36;18.67;;;5.70;;
40198;SDS011;25906;43.536;26.068;2024-01-07T22:46:21;19.50;;;5.22;;
40198;SDS011;25906;43.536;26.068;2024-01-07T22:49:07;23.55;;;6.20;;
40198;SDS011;25906;43.536;26.068;2024-01-07T22:51:52;21.38;;;5.88;;
40198;SDS011;25906;43.536;26.068;2024-01-07T22:54:44;17.98;;;5.93;;
40198;SDS011;25906;43.536;26.068;2024-01-07T22:57:29;29.50;;;5.00;;
40198;SDS011;25906;43.536;26.068;2024-01-07T23:00:14;19.02;;;5.75;;
40198;SDS011;25906;43.536;26.068;2024-01-07T23:03:00;16.30;;;5.13;;
40198;SDS011;25906;43.536;26.068;2024-01-07T23:05:51;19.63;;;5.75;;
40198;SDS011;25906;43.536;26.068;2024-01-07T23:08:37;12.25;;;5.03;;
40198;SDS011;25906;43.536;26.068;2024-01-07T23:11:22;9.65;;;5.00;;
40198;SDS011;25906;43.536;26.068;2024-01-07T23:14:08;24.67;;;5.32;;
40198;SDS011;25906;43.536;26.068;2024-01-07T23:16:53;10.82;;;5.05;;
40198;SDS011;25906;43.536;26.068;2024-01-07T23:19:39;20.23;;;5.05;;
40198;SDS011;25906;43.536;26.068;2024-01-07T23:22:25;46.42;;;6.20;;
40198;SDS011;25906;43.536;26.068;2024-01-07T23:25:10;28.75;;;4.78;;
40198;SDS011;25906;43.536;26.068;2024-01-07T23:27:56;27.98;;;4.65;;
40198;SDS011;25906;43.536;26.068;2024-01-07T23:30:41;22.15;;;5.03;;
40198;SDS011;25906;43.536;26.068;2024-01-07T23:33:27;50.85;;;6.88;;
40198;SDS011;25906;43.536;26.068;2024-01-07T23:36:13;15.18;;;4.75;;
40198;SDS011;25906;43.536;26.068;2024-01-07T23:38:59;16.95;;;4.95;;
40198;SDS011;25906;43.536;26.068;2024-01-07T23:41:44;13.93;;;5.20;;
40198;SDS011;25906;43.536;26.068;2024-01-07T23:44:30;16.50;;;4.70;;
40198;SDS011;25906;43.536;26.068;2024-01-07T23:47:15;12.43;;;4.03;;
40198;SDS011;25906;43.536;26.068;2024-01-07T23:50:01;9.10;;;4.53;;
40198;SDS011;25906;43.536;26.068;2024-01-07T23:52:46;9.43;;;4.78;;
40198;SDS011;25906;43.536;26.068;2024-01-07T23:55:32;10.13;;;4.00;;
40198;SDS011;25906;43.536;26.068;2024-01-07T23:58:19;14.30;;;5.47;;
